sensor_id;sensor_type;location;lat;lon;timestamp;temperature;humidity
20315;DHT22;10315;50.958;13.080;2022-07-18T00:03:39;13.20;99.90
20315;DHT22;10315;50.958;13.080;2022-07-18T00:13:42;13.10;99.90
20315;DHT22;10315;50.958;13.080;2022-07-18T00:23:44;12.90;99.90
20315;DHT22;10315;50.958;13.080;2022-07-18T00:33:47;12.60;99.90
20315;DHT22;10315;50.958;13.080;2022-07-18T00:43:48;12.40;99.90
20315;DHT22;10315;50.958;13.080;2022-07-18T00:53:51;12.10;99.90
20315;DHT22;10315;50.958;13.080;2022-07-18T01:03:53;11.80;99.90
20315;DHT22;10315;50.958;13.080;2022-07-18T01:13:56;12.10;99.90
20315;DHT22;10315;50.958;13.080;2022-07-18T01:23:59;12.10;99.90
20315;DHT22;10315;50.958;13.080;2022-07-18T01:34:01;12.10;99.90
20315;DHT22;10315;50.958;13.080;2022-07-18T01:44:04;12.10;99.90
20315;DHT22;10315;50.958;13.080;2022-07-18T01:54:06;12.10;99.90
20315;DHT22;10315;50.958;13.080;2022-07-18T02:04:09;11.80;99.90
20315;DHT22;10315;50.958;13.080;2022-07-18T02:14:10;11.70;99.90
20315;DHT22;10315;50.958;13.080;2022-07-18T02:24:13;11.50;99.90
20315;DHT22;10315;50.958;13.080;2022-07-18T02:34:15;11.50;99.90
20315;DHT22;10315;50.958;13.080;2022-07-18T02:44:18;11.30;99.90
20315;DHT22;10315;50.958;13.080;2022-07-18T02:54:20;11.30;99.90
20315;DHT22;10315;50.958;13.080;2022-07-18T03:04:23;11.60;99.90
20315;DHT22;10315;50.958;13.080;2022-07-18T03:14:25;11.40;99.90
20315;DHT22;10315;50.958;13.080;2022-07-18T03:24:28;11.40;99.90
20315;DHT22;10315;50.958;13.080;2022-07-18T03:34:30;11.50;99.90
20315;DHT22;10315;50.958;13.080;2022-07-18T03:44:33;11.50;99.90
20315;DHT22;10315;50.958;13.080;2022-07-18T03:54:34;11.40;99.90
20315;DHT22;10315;50.958;13.080;2022-07-18T04:04:37;11.60;99.90
20315;DHT22;10315;50.958;13.080;2022-07-18T04:14:39;11.70;99.90
20315;DHT22;10315;50.958;13.080;2022-07-18T04:24:42;11.60;99.90
20315;DHT22;10315;50.958;13.080;2022-07-18T04:34:43;11.50;99.90
20315;DHT22;10315;50.958;13.080;2022-07-18T04:44:46;11.70;99.90
20315;DHT22;10315;50.958;13.080;2022-07-18T04:54:48;12.40;99.90
20315;DHT22;10315;50.958;13.080;2022-07-18T05:04:53;12.90;99.90
20315;DHT22;10315;50.958;13.080;2022-07-18T05:14:54;13.20;99.90
20315;DHT22;10315;50.958;13.080;2022-07-18T05:24:57;13.50;99.90
20315;DHT22;10315;50.958;13.080;2022-07-18T05:34:59;13.80;99.90
20315;DHT22;10315;50.958;13.080;2022-07-18T05:45:03;14.20;99.90
20315;DHT22;10315;50.958;13.080;2022-07-18T05:55:09;14.70;99.90
20315;DHT22;10315;50.958;13.080;2022-07-18T06:05:12;15.40;99.90
20315;DHT22;10315;50.958;13.080;2022-07-18T06:15:14;16.20;99.90
20315;DHT22;10315;50.958;13.080;2022-07-18T06:25:17;17.30;99.90
20315;DHT22;10315;50.958;13.080;2022-07-18T06:35:19;18.80;99.90
20315;DHT22;10315;50.958;13.080;2022-07-18T06:45:22;20.80;99.90
20315;DHT22;10315;50.958;13.080;2022-07-18T06:55:23;29.90;71.10
20315;DHT22;10315;50.958;13.080;2022-07-18T07:05:26;34.60;53.50
20315;DHT22;10315;50.958;13.080;2022-07-18T07:15:29;37.00;46.90
20315;DHT22;10315;50.958;13.080;2022-07-18T07:25:32;37.20;45.50
20315;DHT22;10315;50.958;13.080;2022-07-18T07:35:33;40.60;40.00
20315;DHT22;10315;50.958;13.080;2022-07-18T07:45:37;46.90;34.00
20315;DHT22;10315;50.958;13.080;2022-07-18T07:55:38;47.20;32.50
20315;DHT22;10315;50.958;13.080;2022-07-18T08:05:46;48.80;30.00
20315;DHT22;10315;50.958;13.080;2022-07-18T08:15:48;44.50;31.80
20315;DHT22;10315;50.958;13.080;2022-07-18T08:25:51;44.50;31.10
20315;DHT22;10315;50.958;13.080;2022-07-18T08:35:53;44.10;31.30
20315;DHT22;10315;50.958;13.080;2022-07-18T08:45:59;43.00;31.50
20315;DHT22;10315;50.958;13.080;2022-07-18T08:56:01;44.50;31.00
20315;DHT22;10315;50.958;13.080;2022-07-18T09:06:06;47.80;29.10
20315;DHT22;10315;50.958;13.080;2022-07-18T09:16:10;47.70;29.10
20315;DHT22;10315;50.958;13.080;2022-07-18T09:26:33;50.20;28.10
20315;DHT22;10315;50.958;13.080;2022-07-18T09:36:54;45.70;28.70
20315;DHT22;10315;50.958;13.080;2022-07-18T09:47:00;45.00;29.00
20315;DHT22;10315;50.958;13.080;2022-07-18T09:57:02;45.20;29.40
20315;DHT22;10315;50.958;13.080;2022-07-18T10:07:05;45.90;29.50
20315;DHT22;10315;50.958;13.080;2022-07-18T10:17:07;43.80;30.10
20315;DHT22;10315;50.958;13.080;2022-07-18T10:27:15;42.40;30.20
20315;DHT22;10315;50.958;13.080;2022-07-18T10:37:24;40.10;32.70
20315;DHT22;10315;50.958;13.080;2022-07-18T10:47:29;38.70;33.60
20315;DHT22;10315;50.958;13.080;2022-07-18T10:57:32;39.20;34.00
20315;DHT22;10315;50.958;13.080;2022-07-18T11:07:35;36.80;35.60
20315;DHT22;10315;50.958;13.080;2022-07-18T11:18:01;36.70;35.30
20315;DHT22;10315;50.958;13.080;2022-07-18T11:28:07;36.10;36.60
20315;DHT22;10315;50.958;13.080;2022-07-18T11:38:09;35.60;36.60
20315;DHT22;10315;50.958;13.080;2022-07-18T11:48:20;35.60;36.30
20315;DHT22;10315;50.958;13.080;2022-07-18T11:58:22;35.40;36.80
20315;DHT22;10315;50.958;13.080;2022-07-18T12:08:32;34.60;38.20
20315;DHT22;10315;50.958;13.080;2022-07-18T12:18:34;35.30;38.30
20315;DHT22;10315;50.958;13.080;2022-07-18T12:28:37;34.60;37.70
20315;DHT22;10315;50.958;13.080;2022-07-18T12:38:39;34.20;38.00
20315;DHT22;10315;50.958;13.080;2022-07-18T12:48:42;34.70;38.20
20315;DHT22;10315;50.958;13.080;2022-07-18T12:58:43;34.50;38.60
20315;DHT22;10315;50.958;13.080;2022-07-18T13:08:46;35.10;37.50
20315;DHT22;10315;50.958;13.080;2022-07-18T13:18:48;34.70;38.50
20315;DHT22;10315;50.958;13.080;2022-07-18T13:28:51;35.40;38.40
20315;DHT22;10315;50.958;13.080;2022-07-18T13:38:52;35.50;38.30
20315;DHT22;10315;50.958;13.080;2022-07-18T13:48:55;34.20;39.70
20315;DHT22;10315;50.958;13.080;2022-07-18T13:58:57;34.20;40.30
20315;DHT22;10315;50.958;13.080;2022-07-18T14:09:00;34.30;39.60
20315;DHT22;10315;50.958;13.080;2022-07-18T14:19:01;33.70;40.50
20315;DHT22;10315;50.958;13.080;2022-07-18T14:29:05;33.30;41.90
20315;DHT22;10315;50.958;13.080;2022-07-18T14:39:07;33.10;41.60
20315;DHT22;10315;50.958;13.080;2022-07-18T14:49:10;32.90;42.10
20315;DHT22;10315;50.958;13.080;2022-07-18T14:59:11;32.90;42.30
20315;DHT22;10315;50.958;13.080;2022-07-18T15:09:14;32.20;43.40
20315;DHT22;10315;50.958;13.080;2022-07-18T15:19:16;32.80;42.60
20315;DHT22;10315;50.958;13.080;2022-07-18T15:29:19;32.20;42.80
20315;DHT22;10315;50.958;13.080;2022-07-18T15:39:20;32.20;42.80
20315;DHT22;10315;50.958;13.080;2022-07-18T15:49:23;31.50;44.00
20315;DHT22;10315;50.958;13.080;2022-07-18T15:59:25;31.60;43.90
20315;DHT22;10315;50.958;13.080;2022-07-18T16:09:28;31.20;44.40
20315;DHT22;10315;50.958;13.080;2022-07-18T16:19:30;30.70;45.00
20315;DHT22;10315;50.958;13.080;2022-07-18T16:29:32;30.70;45.40
20315;DHT22;10315;50.958;13.080;2022-07-18T16:39:37;31.20;44.70
20315;DHT22;10315;50.958;13.080;2022-07-18T16:49:41;30.70;44.90
20315;DHT22;10315;50.958;13.080;2022-07-18T16:59:43;30.00;46.40
20315;DHT22;10315;50.958;13.080;2022-07-18T17:09:46;29.30;47.40
20315;DHT22;10315;50.958;13.080;2022-07-18T17:19:48;29.40;47.50
20315;DHT22;10315;50.958;13.080;2022-07-18T17:29:52;29.00;48.40
20315;DHT22;10315;50.958;13.080;2022-07-18T17:39:54;28.60;48.80
20315;DHT22;10315;50.958;13.080;2022-07-18T17:49:57;28.10;50.60
20315;DHT22;10315;50.958;13.080;2022-07-18T17:59:59;27.70;51.40
20315;DHT22;10315;50.958;13.080;2022-07-18T18:10:04;27.30;51.60
20315;DHT22;10315;50.958;13.080;2022-07-18T18:20:06;26.90;54.00
20315;DHT22;10315;50.958;13.080;2022-07-18T18:30:10;26.30;55.40
20315;DHT22;10315;50.958;13.080;2022-07-18T18:40:12;25.50;56.70
20315;DHT22;10315;50.958;13.080;2022-07-18T18:50:15;25.00;57.80
20315;DHT22;10315;50.958;13.080;2022-07-18T19:00:16;24.80;57.70
20315;DHT22;10315;50.958;13.080;2022-07-18T19:10:20;24.50;58.40
20315;DHT22;10315;50.958;13.080;2022-07-18T19:20:22;24.00;61.60
20315;DHT22;10315;50.958;13.080;2022-07-18T19:30:26;23.40;63.10
20315;DHT22;10315;50.958;13.080;2022-07-18T19:40:41;23.10;62.20
20315;DHT22;10315;50.958;13.080;2022-07-18T19:50:44;23.10;62.60
20315;DHT22;10315;50.958;13.080;2022-07-18T20:00:46;22.80;65.80
20315;DHT22;10315;50.958;13.080;2022-07-18T20:10:49;22.20;67.50
20315;DHT22;10315;50.958;13.080;2022-07-18T20:20:50;22.10;68.60
20315;DHT22;10315;50.958;13.080;2022-07-18T20:30:53;22.00;67.80
20315;DHT22;10315;50.958;13.080;2022-07-18T20:40:55;21.70;67.90
20315;DHT22;10315;50.958;13.080;2022-07-18T20:50:58;21.50;68.20
20315;DHT22;10315;50.958;13.080;2022-07-18T21:01:00;21.10;70.20
20315;DHT22;10315;50.958;13.080;2022-07-18T21:11:03;20.40;72.80
20315;DHT22;10315;50.958;13.080;2022-07-18T21:21:05;20.70;70.30
20315;DHT22;10315;50.958;13.080;2022-07-18T21:31:08;20.20;71.80
20315;DHT22;10315;50.958;13.080;2022-07-18T21:41:09;19.90;72.70
20315;DHT22;10315;50.958;13.080;2022-07-18T21:51:12;19.60;73.70
20315;DHT22;10315;50.958;13.080;2022-07-18T22:01:14;19.50;76.20
20315;DHT22;10315;50.958;13.080;2022-07-18T22:11:17;19.20;79.20
20315;DHT22;10315;50.958;13.080;2022-07-18T22:21:19;18.80;81.70
20315;DHT22;10315;50.958;13.080;2022-07-18T22:31:23;19.10;81.30
20315;DHT22;10315;50.958;13.080;2022-07-18T22:41:24;18.70;84.50
20315;DHT22;10315;50.958;13.080;2022-07-18T22:51:27;18.70;86.40
20315;DHT22;10315;50.958;13.080;2022-07-18T23:01:29;18.80;87.30
20315;DHT22;10315;50.958;13.080;2022-07-18T23:11:32;18.70;88.90
20315;DHT22;10315;50.958;13.080;2022-07-18T23:21:34;18.40;90.30
20315;DHT22;10315;50.958;13.080;2022-07-18T23:31:37;18.30;91.10
20315;DHT22;10315;50.958;13.080;2022-07-18T23:41:38;18.10;91.80
20315;DHT22;10315;50.958;13.080;2022-07-18T23:51:41;18.20;92.30
